createdAt,value
2018-02-06T04:38:32.508Z,25.44
2018-02-06T04:39:31.476Z,26.21
2018-02-06T04:40:31.716Z,26.07
2018-02-06T04:41:31.679Z,26.45
2018-02-06T04:42:34.868Z,27.00
2018-02-06T04:43:34.418Z,27.79
2018-02-06T04:44:31.650Z,26.83
2018-02-06T04:45:34.005Z,30.52
2018-02-06T04:46:31.727Z,26.70
2018-02-06T04:47:30.875Z,26.12
2018-02-06T04:48:30.864Z,25.95
2018-02-06T04:49:30.852Z,28.26
2018-02-06T04:50:30.859Z,24.96
2018-02-06T04:51:30.843Z,24.89
2018-02-06T04:52:30.823Z,26.93
2018-02-06T04:53:30.806Z,25.84
2018-02-06T04:54:30.794Z,25.86
2018-02-06T04:55:30.801Z,26.02
2018-02-06T04:56:30.800Z,26.84
2018-02-06T04:57:30.753Z,26.69
2018-02-06T04:58:30.754Z,28.12
2018-02-06T04:59:30.741Z,26.76
2018-02-06T05:00:30.728Z,26.60
2018-02-06T05:01:30.716Z,26.86
2018-02-06T05:02:30.737Z,26.84
2018-02-06T05:03:30.684Z,27.14
2018-02-06T05:04:30.674Z,28.62
2018-02-06T05:05:30.659Z,26.75
2018-02-06T05:06:30.662Z,28.61
2018-02-06T05:07:30.641Z,26.33
2018-02-06T05:08:30.625Z,26.12
2018-02-06T05:09:30.625Z,26.97
2018-02-06T05:10:30.602Z,28.87
2018-02-06T05:11:30.588Z,26.93
2018-02-06T05:12:30.592Z,27.00
2018-02-06T05:13:30.559Z,28.58
2018-02-06T05:14:30.547Z,27.67
2018-02-06T05:15:30.535Z,26.93
2018-02-06T05:16:30.531Z,28.55
2018-02-06T05:17:30.620Z,27.29
2018-02-06T05:18:30.564Z,26.59
2018-02-06T05:19:30.493Z,28.92
2018-02-06T05:20:30.487Z,29.17
2018-02-06T05:21:30.472Z,27.31
2018-02-06T05:22:30.464Z,28.60
2018-02-06T05:23:30.438Z,28.75
2018-02-06T05:24:30.484Z,27.70
2018-02-06T05:25:30.428Z,28.08
2018-02-06T05:26:30.433Z,28.37
2018-02-06T05:27:30.461Z,28.64
2018-02-06T05:28:30.421Z,28.38
2018-02-06T05:29:30.437Z,25.35
2018-02-06T05:30:30.460Z,29.37
2018-02-06T05:31:30.445Z,27.61
2018-02-06T05:32:30.407Z,29.34
2018-02-06T05:33:30.376Z,25.99
2018-02-06T05:34:30.393Z,26.22
2018-02-06T05:35:30.335Z,26.32
2018-02-06T05:36:30.450Z,27.09
2018-02-06T05:37:30.363Z,27.81
2018-02-06T05:38:30.336Z,31.71
2018-02-06T05:39:30.327Z,28.84
2018-02-06T05:40:30.314Z,28.07
2018-02-06T05:41:30.316Z,26.12
2018-02-06T05:42:30.360Z,25.91
2018-02-06T05:43:30.456Z,27.15
2018-02-06T05:44:30.253Z,25.53
2018-02-06T05:45:30.213Z,29.77
2018-02-06T05:46:30.546Z,27.09
2018-02-06T05:47:31.651Z,26.55
2018-02-06T05:48:30.162Z,27.12
2018-02-06T05:49:30.147Z,27.76
2018-02-06T05:50:34.193Z,27.96
2018-02-06T05:51:31.660Z,25.42
2018-02-06T05:52:30.105Z,26.20
2018-02-06T05:53:30.086Z,27.52
2018-02-06T05:54:30.074Z,27.57
2018-02-06T05:55:30.062Z,26.42
2018-02-06T05:56:30.941Z,27.07
2018-02-06T05:57:30.034Z,28.47
2018-02-06T05:58:30.020Z,29.60
2018-02-06T05:59:30.022Z,34.56
2018-02-06T06:00:29.998Z,59.00
2018-02-06T06:01:29.985Z,36.88
2018-02-06T06:02:30.005Z,44.48
2018-02-06T06:03:29.965Z,48.98
2018-02-06T06:04:29.966Z,39.50
2018-02-06T06:05:29.943Z,34.78
2018-02-06T06:06:29.946Z,32.28
2018-02-06T06:07:29.926Z,34.60
2018-02-06T06:08:29.922Z,30.31
2018-02-06T06:09:29.894Z,30.85
2018-02-06T06:10:30.280Z,28.29
2018-02-06T06:11:29.864Z,29.55
2018-02-06T06:12:33.659Z,29.49
2018-02-06T06:13:29.861Z,26.84
2018-02-06T06:14:37.663Z,27.78
2018-02-06T06:15:29.857Z,27.97
2018-02-06T06:16:29.817Z,27.97
2018-02-06T06:17:29.813Z,26.02
2018-02-06T06:18:29.796Z,27.35
2018-02-06T06:19:29.791Z,26.44
2018-02-06T06:20:29.762Z,24.08
2018-02-06T06:21:29.770Z,29.08
2018-02-06T06:22:29.750Z,29.65
2018-02-06T06:23:29.737Z,27.62
2018-02-06T06:24:29.733Z,26.40
2018-02-06T06:25:29.709Z,28.65
2018-02-06T06:26:29.702Z,31.67
2018-02-06T06:27:29.702Z,28.11
2018-02-06T06:28:29.701Z,28.38
2018-02-06T06:29:29.661Z,28.78
2018-02-06T06:30:29.706Z,29.20
2018-02-06T06:31:29.648Z,30.47
2018-02-06T06:32:29.624Z,26.59
2018-02-06T06:33:29.618Z,27.97
2018-02-06T06:34:29.600Z,25.48
2018-02-06T06:35:29.605Z,26.26
2018-02-06T06:36:31.238Z,26.44
2018-02-06T06:37:31.189Z,27.23
2018-02-06T06:38:31.170Z,25.48
2018-02-06T06:39:29.807Z,26.74
2018-02-06T06:40:29.569Z,27.33
2018-02-06T06:41:29.602Z,27.08
2018-02-06T06:42:29.546Z,26.96
2018-02-06T06:43:31.319Z,26.11
2018-02-06T06:44:29.531Z,27.30
2018-02-06T06:45:29.472Z,27.12
2018-02-06T06:46:29.489Z,28.06
2018-02-06T06:47:29.447Z,29.16
2018-02-06T06:48:29.454Z,28.06
2018-02-06T06:49:29.432Z,29.19
2018-02-06T06:50:29.448Z,27.31
2018-02-06T06:51:29.415Z,27.46
2018-02-06T06:52:29.386Z,26.78
2018-02-06T06:53:29.380Z,30.34
2018-02-06T06:54:29.374Z,29.96
2018-02-06T06:55:29.374Z,29.85
2018-02-06T06:56:29.380Z,28.16
2018-02-06T06:57:29.356Z,25.83
2018-02-06T06:58:29.357Z,27.44
2018-02-06T06:59:29.305Z,27.32
2018-02-06T07:00:29.329Z,26.92
2018-02-06T07:01:29.294Z,27.40
2018-02-06T07:02:29.320Z,27.62
2018-02-06T07:03:29.263Z,27.58
2018-02-06T07:04:29.271Z,26.64
2018-02-06T07:05:29.278Z,27.76
2018-02-06T07:06:29.225Z,29.25
2018-02-06T07:07:29.215Z,30.84
2018-02-06T07:08:29.244Z,28.34
2018-02-06T07:09:29.226Z,27.98
2018-02-06T07:10:29.250Z,28.28
2018-02-06T07:11:29.163Z,28.17
2018-02-06T07:12:29.160Z,28.32
2018-02-06T07:13:29.180Z,30.44
2018-02-06T07:14:29.163Z,30.43
2018-02-06T07:15:29.127Z,27.80
2018-02-06T07:16:29.120Z,26.62
2018-02-06T07:17:29.116Z,31.82
2018-02-06T07:18:29.106Z,28.95
2018-02-06T07:19:29.081Z,29.06
2018-02-06T07:20:29.090Z,29.13
2018-02-06T07:21:29.067Z,28.87
2018-02-06T07:22:29.051Z,32.38
2018-02-06T07:23:29.035Z,30.57
2018-02-06T07:24:29.036Z,28.64
2018-02-06T07:25:29.024Z,28.71
2018-02-06T07:26:28.999Z,27.83
2018-02-06T07:27:28.989Z,28.01
2018-02-06T07:28:28.974Z,27.97
2018-02-06T07:29:28.964Z,29.35
2018-02-06T07:30:28.983Z,29.26
2018-02-06T07:31:28.959Z,29.24
2018-02-06T07:32:28.924Z,27.86
2018-02-06T07:33:28.923Z,27.78
2018-02-06T07:34:28.937Z,28.68
2018-02-06T07:35:28.906Z,28.88
2018-02-06T07:36:28.881Z,29.01
2018-02-06T07:37:28.894Z,29.08
2018-02-06T07:38:28.871Z,27.73
2018-02-06T07:39:28.877Z,32.17
2018-02-06T07:40:28.853Z,31.18
2018-02-06T07:41:28.829Z,27.98
2018-02-06T07:42:28.831Z,28.91
2018-02-06T07:43:28.801Z,29.98
2018-02-06T07:44:28.790Z,29.03
2018-02-06T07:45:28.787Z,26.93
2018-02-06T07:46:28.790Z,29.52
2018-02-06T07:47:28.785Z,30.12
2018-02-06T07:48:28.738Z,33.48
2018-02-06T07:49:28.726Z,34.65
2018-02-06T07:50:28.729Z,29.08
2018-02-06T07:51:28.703Z,28.62
2018-02-06T07:52:28.709Z,31.01
2018-02-06T07:53:28.693Z,26.34
2018-02-06T07:54:28.699Z,27.74
2018-02-06T07:55:28.676Z,31.00
2018-02-06T07:56:28.676Z,28.37
2018-02-06T07:57:28.642Z,29.11
2018-02-06T07:58:28.644Z,30.90
2018-02-06T07:59:28.649Z,26.47
2018-02-06T08:00:28.644Z,32.41
2018-02-06T08:01:28.603Z,25.79
2018-02-06T08:02:28.610Z,29.29
2018-02-06T08:03:28.570Z,27.54
2018-02-06T08:03:40.579Z,1.10
2018-02-06T08:05:28.629Z,27.26
2018-02-06T08:06:28.583Z,28.53
2018-02-06T08:07:28.539Z,29.06
2018-02-06T08:08:28.513Z,29.86
2018-02-06T08:09:28.503Z,29.82
2018-02-06T08:10:28.496Z,29.24
2018-02-06T08:11:28.502Z,29.58
2018-02-06T08:12:28.493Z,28.98
2018-02-06T08:13:28.474Z,30.28
2018-02-06T08:14:28.456Z,29.83
2018-02-06T08:15:28.465Z,32.15
2018-02-06T08:16:28.424Z,29.87
2018-02-06T08:17:28.435Z,28.67
2018-02-06T08:18:28.416Z,31.49
2018-02-06T08:19:28.398Z,31.50
2018-02-06T08:20:28.381Z,33.64
2018-02-06T08:21:28.371Z,29.63
2018-02-06T08:22:28.389Z,51.82
2018-02-06T08:23:28.347Z,50.04
2018-02-06T08:24:28.353Z,35.83
2018-02-06T08:25:28.350Z,31.29
2018-02-06T08:26:28.319Z,33.56
2018-02-06T08:27:28.329Z,30.83
2018-02-06T08:28:28.305Z,33.16
2018-02-06T08:29:28.296Z,29.15
2018-02-06T08:30:28.293Z,32.04
2018-02-06T08:31:28.267Z,30.76
2018-02-06T08:32:28.256Z,28.34
2018-02-06T08:33:28.268Z,27.58
2018-02-06T08:34:28.247Z,28.14
2018-02-06T08:35:28.221Z,33.82
2018-02-06T08:36:28.218Z,30.28
2018-02-06T08:37:28.199Z,29.65
2018-02-06T08:38:28.214Z,29.42
2018-02-06T08:39:28.192Z,39.60
2018-02-06T08:40:28.199Z,41.39
2018-02-06T08:41:28.178Z,34.32
2018-02-06T08:42:28.153Z,34.64
2018-02-06T08:43:28.154Z,29.26
2018-02-06T08:44:28.125Z,28.19
2018-02-06T08:45:28.127Z,30.74
2018-02-06T08:46:28.139Z,28.54
2018-02-06T08:47:28.104Z,28.89
2018-02-06T08:48:28.103Z,31.31
2018-02-06T08:49:28.075Z,28.45
2018-02-06T08:50:28.071Z,30.48
2018-02-06T08:51:28.087Z,32.67
2018-02-06T08:52:28.061Z,30.32
2018-02-06T08:53:28.068Z,30.74
2018-02-06T08:54:28.064Z,29.78
2018-02-06T08:55:28.037Z,29.24
2018-02-06T08:56:28.024Z,27.22
2018-02-06T08:57:27.997Z,25.95
2018-02-06T08:58:28.010Z,29.19
2018-02-06T08:59:27.996Z,28.63
2018-02-06T09:00:27.961Z,29.86
2018-02-06T09:01:27.968Z,31.26
2018-02-06T09:02:27.950Z,29.86
2018-02-06T09:03:27.942Z,28.00
2018-02-06T09:04:27.921Z,28.78
2018-02-06T09:05:27.915Z,28.44
2018-02-06T09:06:27.959Z,28.90
2018-02-06T09:07:27.910Z,28.70
2018-02-06T09:08:27.884Z,29.25
2018-02-06T09:09:27.880Z,30.03
2018-02-06T09:10:27.887Z,29.51
2018-02-06T09:11:27.852Z,29.66
2018-02-06T09:12:27.851Z,29.28
2018-02-06T09:13:27.849Z,29.01
2018-02-06T09:14:27.845Z,28.02
2018-02-06T09:15:27.809Z,30.05
2018-02-06T09:16:27.822Z,32.29
2018-02-06T09:17:27.802Z,29.12
2018-02-06T09:18:27.787Z,31.05
2018-02-06T09:19:27.792Z,30.76
2018-02-06T09:20:27.763Z,31.68
2018-02-06T09:21:27.751Z,30.22
2018-02-06T09:22:27.771Z,30.15
2018-02-06T09:23:27.739Z,31.72
2018-02-06T09:24:27.750Z,30.99
2018-02-06T09:25:27.718Z,32.92
2018-02-06T09:26:27.715Z,32.42
2018-02-06T09:27:27.722Z,32.68
2018-02-06T09:28:27.710Z,33.04
2018-02-06T09:29:27.679Z,33.77
2018-02-06T09:30:27.694Z,33.34
2018-02-06T09:31:27.654Z,30.28
2018-02-06T09:32:27.658Z,31.95
2018-02-06T09:33:27.649Z,34.96
2018-02-06T09:34:27.630Z,34.64
2018-02-06T09:35:27.624Z,33.78
2018-02-06T09:36:27.607Z,33.33
2018-02-06T09:37:27.600Z,33.26
2018-02-06T09:38:27.588Z,31.69
2018-02-06T09:39:27.593Z,32.03
2018-02-06T09:40:27.579Z,34.60
2018-02-06T09:41:27.558Z,32.91
2018-02-06T09:42:27.561Z,35.69
2018-02-06T09:43:27.548Z,36.50
2018-02-06T09:44:27.520Z,35.65
2018-02-06T09:45:27.562Z,32.56
2018-02-06T09:46:27.522Z,33.14
2018-02-06T09:47:27.526Z,33.58
2018-02-06T09:48:27.484Z,32.39
2018-02-06T09:49:27.480Z,34.78
2018-02-06T09:50:27.471Z,34.18
2018-02-06T09:51:27.450Z,35.16
2018-02-06T09:52:27.462Z,34.72
2018-02-06T09:53:27.430Z,35.77
2018-02-06T09:54:27.422Z,35.10
2018-02-06T09:55:27.410Z,34.26
2018-02-06T09:56:27.404Z,36.24
2018-02-06T09:57:27.439Z,33.44
2018-02-06T09:58:27.418Z,35.75
2018-02-06T09:59:27.378Z,37.02
2018-02-06T10:00:27.362Z,36.45
2018-02-06T10:01:27.361Z,35.26
2018-02-06T10:02:27.340Z,36.54
2018-02-06T10:03:27.450Z,35.69
2018-02-06T10:04:27.535Z,38.74
2018-02-06T10:05:27.317Z,37.66
2018-02-06T10:06:27.339Z,35.62
2018-02-06T10:07:27.327Z,34.92
2018-02-06T10:08:27.302Z,34.96
2018-02-06T10:09:27.267Z,36.21
2018-02-06T10:10:27.265Z,38.49
2018-02-06T10:11:27.260Z,41.14
2018-02-06T10:12:27.257Z,37.38
2018-02-06T10:13:27.281Z,36.46
2018-02-06T10:14:27.308Z,36.86
2018-02-06T10:15:27.220Z,36.27
2018-02-06T10:16:27.231Z,38.17
2018-02-06T10:17:27.195Z,37.95
2018-02-06T10:18:27.184Z,38.68
2018-02-06T10:19:27.184Z,36.77
2018-02-06T10:20:27.168Z,37.81
2018-02-06T10:21:27.162Z,35.62
2018-02-06T10:22:27.146Z,34.78
2018-02-06T10:23:27.368Z,35.64
2018-02-06T10:24:27.132Z,33.62
2018-02-06T10:25:27.130Z,36.00
2018-02-06T10:26:27.114Z,33.19
2018-02-06T10:27:27.117Z,33.10
2018-02-06T10:28:27.097Z,35.44
2018-02-06T10:29:27.081Z,36.50
2018-02-06T10:30:27.118Z,34.23
2018-02-06T10:31:27.076Z,33.36
2018-02-06T10:32:27.072Z,33.13
2018-02-06T10:33:27.058Z,32.72
2018-02-06T10:34:27.043Z,35.75
2018-02-06T10:35:27.021Z,35.27
2018-02-06T10:36:27.045Z,34.51
2018-02-06T10:37:26.997Z,36.33
2018-02-06T10:38:27.015Z,34.55
2018-02-06T10:39:26.979Z,33.82
2018-02-06T10:40:27.042Z,33.76
2018-02-06T10:41:26.968Z,34.48
2018-02-06T10:42:26.953Z,36.70
2018-02-06T10:43:26.954Z,34.90
2018-02-06T10:44:26.947Z,36.58
2018-02-06T10:45:26.920Z,37.96
2018-02-06T10:46:26.915Z,34.18
2018-02-06T10:47:26.897Z,34.06
2018-02-06T10:48:26.909Z,33.22
2018-02-06T10:49:26.885Z,33.48
2018-02-06T10:50:26.878Z,34.41
2018-02-06T10:51:26.867Z,37.18
2018-02-06T10:52:26.871Z,36.40
2018-02-06T10:53:26.864Z,33.80
2018-02-06T10:54:26.856Z,34.66
2018-02-06T10:55:26.851Z,34.46
2018-02-06T10:56:26.814Z,33.50
2018-02-06T10:57:26.828Z,34.62
2018-02-06T10:58:26.796Z,34.47
2018-02-06T10:59:26.791Z,35.47
2018-02-06T11:00:26.804Z,36.16
2018-02-06T11:01:26.758Z,33.28
2018-02-06T11:02:26.765Z,35.80
2018-02-06T11:03:26.758Z,35.33
2018-02-06T11:04:26.732Z,33.78
2018-02-06T11:05:26.747Z,36.68
2018-02-06T11:06:26.728Z,35.10
2018-02-06T11:07:26.732Z,34.44
2018-02-06T11:08:26.700Z,35.14
2018-02-06T11:09:26.684Z,34.47
2018-02-06T11:10:26.686Z,34.63
2018-02-06T11:11:26.675Z,35.98
2018-02-06T11:12:26.664Z,35.87
2018-02-06T11:13:26.698Z,33.42
2018-02-06T11:14:26.636Z,36.12
2018-02-06T11:15:26.649Z,39.26
2018-02-06T11:16:26.609Z,32.55
2018-02-06T11:17:26.622Z,32.16
2018-02-06T11:18:26.588Z,35.21
2018-02-06T11:19:26.602Z,35.98
2018-02-06T11:20:26.570Z,36.64
2018-02-06T11:21:26.570Z,34.37
2018-02-06T11:22:26.559Z,32.44
2018-02-06T11:23:26.543Z,31.94
2018-02-06T11:24:26.568Z,35.85
2018-02-06T11:25:26.542Z,33.66
2018-02-06T11:26:26.585Z,34.93
2018-02-06T11:27:26.525Z,34.37
2018-02-06T11:28:26.494Z,34.85
2018-02-06T11:29:26.489Z,33.52
2018-02-06T11:30:26.463Z,33.50
2018-02-06T11:31:26.470Z,33.58
2018-02-06T11:32:26.491Z,32.14
2018-02-06T11:33:26.441Z,34.13
2018-02-06T11:34:26.433Z,32.10
2018-02-06T11:35:26.441Z,33.73
2018-02-06T11:36:26.422Z,34.10
2018-02-06T11:37:26.402Z,32.16
2018-02-06T11:38:26.404Z,34.50
2018-02-06T11:39:26.382Z,32.20
2018-02-06T11:40:26.387Z,31.75
2018-02-06T11:41:26.371Z,32.64
2018-02-06T11:42:26.373Z,32.95
2018-02-06T11:43:26.377Z,31.95
2018-02-06T11:44:26.332Z,32.20
2018-02-06T11:45:26.326Z,33.80
2018-02-06T11:46:26.323Z,32.20
2018-02-06T11:47:26.314Z,34.54
2018-02-06T11:48:26.295Z,32.20
2018-02-06T11:49:26.297Z,36.72
2018-02-06T11:50:26.283Z,31.85
2018-02-06T11:51:26.266Z,34.42
2018-02-06T11:52:26.316Z,34.90
2018-02-06T11:53:26.261Z,35.25
2018-02-06T11:54:26.231Z,32.90
2018-02-06T11:55:26.232Z,32.38
2018-02-06T11:56:26.252Z,33.69
2018-02-06T11:57:26.202Z,32.74
2018-02-06T11:58:26.213Z,35.27
2018-02-06T11:59:26.189Z,34.44
2018-02-06T12:00:26.187Z,33.83
2018-02-06T12:01:26.158Z,33.45
2018-02-06T12:02:26.160Z,36.30
2018-02-06T12:03:26.153Z,32.96
2018-02-06T12:04:26.136Z,34.99
2018-02-06T12:05:26.152Z,36.02
2018-02-06T12:06:26.166Z,36.56
2018-02-06T12:07:26.123Z,33.88
2018-02-06T12:08:26.117Z,34.14
2018-02-06T12:09:26.095Z,34.63
2018-02-06T12:10:26.081Z,32.96
2018-02-06T12:11:26.077Z,33.99
2018-02-06T12:12:26.064Z,34.83
2018-02-06T12:13:26.103Z,33.58
2018-02-06T12:14:26.052Z,36.47
2018-02-06T12:15:26.027Z,36.80
2018-02-06T12:16:26.038Z,36.58
2018-02-06T12:17:26.010Z,33.42
2018-02-06T12:18:26.016Z,33.36
2018-02-06T12:19:26.113Z,31.73
2018-02-06T12:20:26.024Z,32.72
2018-02-06T12:21:26.033Z,32.00
2018-02-06T12:22:25.961Z,33.46
2018-02-06T12:23:25.949Z,32.91
2018-02-06T12:24:25.940Z,35.36
2018-02-06T12:25:25.927Z,36.59
2018-02-06T12:26:25.934Z,34.00
2018-02-06T12:27:25.918Z,33.42
2018-02-06T12:28:25.942Z,33.14
2018-02-06T12:29:25.893Z,34.88
2018-02-06T12:30:25.890Z,33.86
2018-02-06T12:31:25.874Z,33.64
2018-02-06T12:32:25.873Z,34.16
2018-02-06T12:33:25.882Z,34.18
2018-02-06T12:34:25.844Z,34.48
2018-02-06T12:35:25.839Z,34.52
2018-02-06T12:36:25.838Z,33.98
2018-02-06T12:37:25.810Z,37.15
2018-02-06T12:38:25.866Z,32.54
2018-02-06T12:39:25.819Z,33.14
2018-02-06T12:40:25.837Z,32.71
2018-02-06T12:41:25.773Z,33.68
2018-02-06T12:42:25.780Z,34.73
2018-02-06T12:43:25.752Z,33.04
2018-02-06T12:44:25.749Z,36.80
2018-02-06T12:45:25.746Z,30.91
2018-02-06T12:46:26.707Z,34.30
2018-02-06T12:47:25.713Z,31.93
2018-02-06T12:48:25.718Z,33.79
2018-02-06T12:49:25.692Z,35.52
2018-02-06T12:50:25.692Z,33.27
2018-02-06T12:51:25.703Z,34.92
2018-02-06T12:52:25.702Z,32.94
2018-02-06T12:53:25.694Z,32.99
2018-02-06T12:54:25.657Z,34.58
2018-02-06T12:55:25.661Z,33.14
2018-02-06T12:56:25.641Z,34.81
2018-02-06T12:57:25.643Z,34.72
2018-02-06T12:58:25.699Z,35.26
2018-02-06T12:59:25.642Z,39.81
2018-02-06T13:00:25.614Z,39.42
2018-02-06T13:01:25.596Z,35.05
2018-02-06T13:02:25.599Z,34.11
2018-02-06T13:03:25.598Z,36.40
2018-02-06T13:04:25.608Z,38.60
2018-02-06T13:05:25.718Z,37.23
2018-02-06T13:06:25.582Z,39.86
2018-02-06T13:07:25.928Z,41.30
2018-02-06T13:08:25.536Z,40.30
2018-02-06T13:09:25.547Z,44.04
2018-02-06T13:10:25.641Z,37.56
2018-02-06T13:11:25.513Z,36.60
2018-02-06T13:12:25.640Z,39.02
2018-02-06T13:12:37.549Z,1.69
2018-02-06T13:14:25.522Z,44.88
2018-02-06T13:15:25.467Z,40.51
2018-02-06T13:16:25.461Z,39.90
2018-02-06T13:17:25.439Z,36.98
2018-02-06T13:18:25.426Z,34.76
2018-02-06T13:19:25.420Z,35.89
2018-02-06T13:20:25.570Z,33.77
2018-02-06T13:21:25.416Z,37.29
2018-02-06T13:22:25.385Z,41.80
2018-02-06T13:23:25.401Z,41.35
2018-02-06T13:24:25.416Z,46.85
2018-02-06T13:25:25.349Z,42.03
2018-02-06T13:26:25.359Z,44.27
2018-02-06T13:27:25.366Z,46.66
2018-02-06T13:28:25.326Z,37.01
2018-02-06T13:29:25.326Z,36.65
2018-02-06T13:30:25.304Z,38.10
2018-02-06T13:31:25.329Z,36.06
2018-02-06T13:32:25.307Z,46.66
2018-02-06T13:33:25.297Z,47.74
2018-02-06T13:34:25.335Z,39.47
2018-02-06T13:35:25.269Z,34.35
2018-02-06T13:36:25.351Z,34.92
2018-02-06T13:37:25.253Z,36.96
2018-02-06T13:38:25.298Z,36.37
2018-02-06T13:39:25.221Z,35.87
2018-02-06T13:40:25.213Z,42.82
2018-02-06T13:41:25.213Z,44.58
2018-02-06T13:42:25.232Z,38.98
2018-02-06T13:43:25.195Z,42.33
2018-02-06T13:44:25.189Z,44.86
2018-02-06T13:45:25.170Z,39.48
2018-02-06T13:46:25.195Z,35.40
2018-02-06T13:47:25.199Z,39.67
2018-02-06T13:48:25.169Z,37.41
2018-02-06T13:49:25.132Z,35.53
2018-02-06T13:50:25.123Z,35.06
2018-02-06T13:51:25.130Z,36.60
2018-02-06T13:52:25.165Z,39.84
2018-02-06T13:53:25.092Z,38.06
2018-02-06T13:54:25.097Z,40.34
2018-02-06T13:55:25.093Z,40.09
2018-02-06T13:56:25.065Z,35.92
2018-02-06T13:57:25.054Z,37.97
2018-02-06T13:58:25.042Z,37.40
2018-02-06T13:59:25.031Z,41.81
2018-02-06T14:00:25.047Z,41.90
2018-02-06T14:01:25.043Z,40.42
2018-02-06T14:02:25.021Z,38.76
2018-02-06T14:03:24.995Z,41.02
2018-02-06T14:04:25.051Z,43.57
2018-02-06T14:05:24.998Z,46.58
2018-02-06T14:06:24.973Z,45.17
2018-02-06T14:07:25.035Z,46.59
2018-02-06T14:08:24.974Z,44.69
2018-02-06T14:09:24.953Z,42.92
2018-02-06T14:10:24.937Z,38.48
2018-02-06T14:11:24.925Z,37.66
2018-02-06T14:12:24.926Z,40.75
2018-02-06T14:13:24.902Z,40.32
2018-02-06T14:14:24.896Z,40.72
2018-02-06T14:15:24.890Z,38.88
2018-02-06T14:16:24.869Z,37.03
2018-02-06T14:17:24.859Z,39.17
2018-02-06T14:18:24.876Z,43.02
2018-02-06T14:19:24.873Z,49.07
2018-02-06T14:20:24.846Z,42.58
2018-02-06T14:21:24.878Z,41.42
2018-02-06T14:22:24.816Z,39.46
2018-02-06T14:23:24.815Z,39.04
2018-02-06T14:24:24.808Z,37.55
2018-02-06T14:25:24.798Z,39.31
2018-02-06T14:26:24.777Z,39.04
2018-02-06T14:27:24.781Z,42.32
2018-02-06T14:28:24.765Z,41.04
2018-02-06T14:29:24.755Z,39.41
2018-02-06T14:30:24.769Z,39.72
2018-02-06T14:31:24.740Z,39.90
2018-02-06T14:32:24.717Z,38.22
2018-02-06T14:33:24.705Z,38.14
2018-02-06T14:34:24.708Z,41.10
2018-02-06T14:35:24.686Z,41.15
2018-02-06T14:36:24.686Z,40.20
2018-02-06T14:37:24.666Z,40.77
2018-02-06T14:38:24.661Z,41.31
2018-02-06T14:39:24.669Z,41.15
2018-02-06T14:40:24.663Z,41.13
2018-02-06T14:41:24.680Z,40.83
2018-02-06T14:42:24.623Z,42.59
2018-02-06T14:43:24.614Z,41.00
2018-02-06T14:44:24.603Z,42.96
2018-02-06T14:45:24.607Z,41.94
2018-02-06T14:46:24.605Z,39.62
2018-02-06T14:47:24.573Z,40.61
2018-02-06T14:48:24.589Z,40.33
2018-02-06T14:49:24.546Z,39.47
2018-02-06T14:50:24.567Z,39.92
2018-02-06T14:51:24.565Z,43.54
2018-02-06T14:52:24.527Z,41.92
2018-02-06T14:53:24.518Z,39.74
2018-02-06T14:54:24.520Z,41.46
2018-02-06T14:55:24.560Z,39.37
2018-02-06T14:56:24.493Z,40.94
2018-02-06T14:57:24.476Z,42.50
2018-02-06T14:58:24.460Z,41.61
2018-02-06T14:59:24.451Z,42.31
2018-02-06T15:00:24.444Z,39.62
2018-02-06T15:01:24.434Z,40.89
2018-02-06T15:02:24.461Z,41.34
2018-02-06T15:03:24.427Z,43.36
2018-02-06T15:04:24.415Z,41.62
2018-02-06T15:05:24.419Z,40.40
2018-02-06T15:06:24.379Z,40.81
2018-02-06T15:07:24.363Z,40.68
2018-02-06T15:08:24.359Z,42.51
2018-02-06T15:09:24.347Z,43.54
2018-02-06T15:10:24.394Z,41.99
2018-02-06T15:10:36.351Z,1.74
2018-02-06T15:12:24.328Z,39.76
2018-02-06T15:13:24.302Z,41.31
2018-02-06T15:14:24.326Z,39.82
2018-02-06T15:15:24.294Z,39.74
2018-02-06T15:16:24.349Z,38.85
2018-02-06T15:17:24.272Z,39.78
2018-02-06T15:18:24.260Z,41.54
2018-02-06T15:19:24.252Z,38.79
2018-02-06T15:20:24.269Z,40.35
2018-02-06T15:21:24.293Z,42.71
2018-02-06T15:22:24.247Z,41.98
2018-02-06T15:23:24.233Z,40.51
2018-02-06T15:24:24.226Z,39.04
2018-02-06T15:25:24.179Z,39.53
2018-02-06T15:26:24.193Z,40.87
2018-02-06T15:27:24.156Z,42.57
2018-02-06T15:28:24.174Z,44.49
2018-02-06T15:29:24.139Z,40.60
2018-02-06T15:30:24.149Z,40.78
2018-02-06T15:31:24.121Z,43.05
2018-02-06T15:32:24.111Z,41.62
2018-02-06T15:33:24.102Z,43.74
2018-02-06T15:34:24.096Z,41.98
2018-02-06T15:35:24.112Z,42.04
2018-02-06T15:36:24.082Z,39.28
2018-02-06T15:37:24.065Z,41.07
2018-02-06T15:38:24.051Z,43.85
2018-02-06T15:39:24.051Z,48.07
2018-02-06T15:40:24.032Z,43.70
2018-02-06T15:41:24.016Z,40.48
2018-02-06T15:42:24.044Z,41.11
2018-02-06T15:43:24.003Z,40.89
2018-02-06T15:44:23.990Z,45.44
2018-02-06T15:45:23.998Z,45.37
2018-02-06T15:46:23.969Z,40.82
2018-02-06T15:47:23.958Z,43.72
2018-02-06T15:48:23.947Z,42.55
2018-02-06T15:49:23.939Z,46.89
2018-02-06T15:50:23.952Z,40.98
2018-02-06T15:51:23.917Z,41.80
2018-02-06T15:52:23.942Z,40.50
2018-02-06T15:53:23.925Z,44.94
2018-02-06T15:54:23.883Z,43.85
2018-02-06T15:55:23.874Z,43.70
2018-02-06T15:56:23.874Z,44.66
2018-02-06T15:57:23.879Z,43.42
2018-02-06T15:58:23.835Z,42.34
2018-02-06T15:59:23.849Z,42.96
2018-02-06T16:00:23.821Z,42.87
2018-02-06T16:01:23.821Z,43.52
2018-02-06T16:02:23.807Z,44.65
2018-02-06T16:03:23.790Z,43.96
2018-02-06T16:04:23.778Z,44.24
2018-02-06T16:05:23.782Z,48.42
2018-02-06T16:06:23.760Z,42.23
2018-02-06T16:07:23.741Z,40.87
2018-02-06T16:08:23.743Z,44.55
2018-02-06T16:09:23.728Z,43.00
2018-02-06T16:10:23.724Z,40.23
2018-02-06T16:11:23.797Z,42.14
2018-02-06T16:12:23.795Z,44.39
2018-02-06T16:13:23.676Z,42.68
2018-02-06T16:14:23.678Z,41.44
2018-02-06T16:15:23.654Z,41.63
2018-02-06T16:16:23.653Z,44.30
2018-02-06T16:17:23.646Z,42.74
2018-02-06T16:18:23.628Z,43.32
2018-02-06T16:19:23.616Z,42.11
2018-02-06T16:20:23.608Z,42.50
2018-02-06T16:21:23.625Z,41.87
2018-02-06T16:22:23.585Z,42.69
2018-02-06T16:23:23.591Z,42.46
2018-02-06T16:24:23.586Z,44.49
2018-02-06T16:25:23.580Z,43.58
2018-02-06T16:26:23.565Z,43.92
2018-02-06T16:27:23.564Z,46.18
2018-02-06T16:28:23.537Z,43.94
2018-02-06T16:29:23.510Z,44.72
2018-02-06T16:30:23.523Z,46.67
2018-02-06T16:31:23.497Z,45.68
2018-02-06T16:32:23.472Z,44.61
2018-02-06T16:33:23.501Z,46.44
2018-02-06T16:34:23.457Z,48.39
2018-02-06T16:35:23.443Z,46.14
2018-02-06T16:36:23.453Z,46.88
2018-02-06T16:37:23.435Z,46.85
2018-02-06T16:38:23.425Z,43.95
2018-02-06T16:39:23.395Z,44.02
2018-02-06T16:40:23.391Z,47.74
2018-02-06T16:41:23.373Z,48.77
2018-02-06T16:42:23.380Z,47.44
2018-02-06T16:43:23.374Z,46.68
2018-02-06T16:44:23.343Z,48.12
2018-02-06T16:45:23.356Z,46.17
2018-02-06T16:46:23.333Z,49.20
2018-02-06T16:47:23.358Z,49.66
2018-02-06T16:48:23.335Z,46.94
2018-02-06T16:49:23.300Z,52.65
2018-02-06T16:50:23.267Z,50.40
2018-02-06T16:51:23.266Z,48.19
2018-02-06T16:52:23.289Z,48.05
2018-02-06T16:53:23.247Z,47.52
2018-02-06T16:54:23.251Z,50.13
2018-02-06T16:55:23.228Z,55.90
2018-02-06T16:56:23.247Z,51.66
2018-02-06T16:57:23.218Z,49.02
2018-02-06T16:58:23.196Z,49.41
2018-02-06T16:59:23.238Z,50.71
2018-02-06T17:00:23.197Z,50.56
2018-02-06T17:01:23.168Z,50.54
2018-02-06T17:02:23.161Z,51.78
2018-02-06T17:03:23.148Z,50.73
2018-02-06T17:04:23.126Z,50.52
2018-02-06T17:05:23.138Z,49.86
2018-02-06T17:06:23.099Z,49.08
2018-02-06T17:07:23.083Z,51.79
2018-02-06T17:08:23.079Z,56.18
2018-02-06T17:09:23.069Z,54.96
2018-02-06T17:10:23.074Z,49.38
2018-02-06T17:11:23.041Z,51.98
2018-02-06T17:12:23.044Z,49.88
2018-02-06T17:13:23.031Z,51.67
2018-02-06T17:14:23.036Z,50.45
2018-02-06T17:15:23.001Z,55.02
2018-02-06T17:16:23.003Z,51.94
2018-02-06T17:17:23.045Z,57.04
2018-02-06T17:18:22.983Z,52.57
2018-02-06T17:19:22.977Z,55.38
2018-02-06T17:20:22.944Z,52.64
2018-02-06T17:21:22.956Z,53.53
2018-02-06T17:22:22.930Z,52.92
2018-02-06T17:23:22.949Z,54.13
2018-02-06T17:24:22.928Z,55.08
2018-02-06T17:25:22.897Z,54.89
2018-02-06T17:26:22.895Z,54.52
2018-02-06T17:27:22.868Z,51.65
2018-02-06T17:28:22.881Z,51.92
2018-02-06T17:29:22.862Z,52.02
2018-02-06T17:30:22.858Z,53.53